createdAt,value
2023-03-27T00:00:13.439Z,8.35
2023-03-27T00:05:16.945Z,9.10
2023-03-27T00:10:19.547Z,8.98
2023-03-27T00:15:22.274Z,8.05
2023-03-27T00:20:26.455Z,8.32
2023-03-27T00:25:29.960Z,7.13
2023-03-27T00:30:33.921Z,6.90
2023-03-27T00:35:37.104Z,5.35
2023-03-27T00:40:40.198Z,5.40
2023-03-27T00:45:43.675Z,6.10
2023-03-27T00:50:48.570Z,6.47
2023-03-27T00:55:55.027Z,6.68
2023-03-27T01:00:58.339Z,7.55
2023-03-27T01:06:02.503Z,6.15
2023-03-27T01:11:43.087Z,5.53
2023-03-27T01:16:51.675Z,6.05
2023-03-27T01:22:13.876Z,6.68
2023-03-27T01:27:38.034Z,4.50
2023-03-27T01:32:43.811Z,6.15
2023-03-27T01:37:58.806Z,6.13
2023-03-27T01:43:11.626Z,6.75
2023-03-27T01:48:39.796Z,6.70
2023-03-27T01:54:06.515Z,7.05
2023-03-27T01:59:19.008Z,7.88
2023-03-27T02:04:27.422Z,6.88
2023-03-27T02:09:35.810Z,6.80
2023-03-27T02:15:24.168Z,7.70
2023-03-27T02:20:28.941Z,8.00
2023-03-27T02:25:42.101Z,7.95
2023-03-27T02:31:33.165Z,7.75
2023-03-27T02:36:55.821Z,7.65
2023-03-27T02:42:25.845Z,7.47
2023-03-27T02:47:42.713Z,8.15
2023-03-27T02:52:53.865Z,7.25
2023-03-27T02:58:03.305Z,7.60
2023-03-27T03:03:53.897Z,7.70
2023-03-27T03:09:19.140Z,8.18
2023-03-27T03:14:28.187Z,9.35
2023-03-27T03:19:31.450Z,9.35
2023-03-27T03:24:35.697Z,10.07
2023-03-27T03:29:40.007Z,10.25
2023-03-27T03:34:57.108Z,11.35
2023-03-27T03:40:01.536Z,11.48
2023-03-27T03:45:09.312Z,11.65
2023-03-27T03:50:13.570Z,10.88
2023-03-27T03:55:16.630Z,10.95
2023-03-27T04:00:19.815Z,12.40
2023-03-27T04:05:27.305Z,12.52
2023-03-27T04:10:35.838Z,16.00
2023-03-27T04:15:41.832Z,16.17
2023-03-27T04:20:54.525Z,13.27
2023-03-27T04:26:02.115Z,13.73
2023-03-27T04:31:40.123Z,12.48
2023-03-27T04:37:08.436Z,11.57
2023-03-27T04:42:16.656Z,14.25
2023-03-27T04:47:20.558Z,14.18
2023-03-27T04:52:26.408Z,11.77
2023-03-27T04:57:31.083Z,10.77
2023-03-27T05:02:36.299Z,11.40
2023-03-27T05:07:48.109Z,14.57
2023-03-27T05:12:57.863Z,17.48
2023-03-27T05:18:02.184Z,12.60
2023-03-27T05:23:06.696Z,12.15
2023-03-27T05:28:09.471Z,11.93
2023-03-27T05:33:14.348Z,11.85
2023-03-27T05:38:17.629Z,10.82
2023-03-27T05:43:46.670Z,11.25
2023-03-27T05:48:51.033Z,10.85
2023-03-27T05:53:54.058Z,10.45
2023-03-27T05:59:01.320Z,11.32
2023-03-27T06:04:05.650Z,11.02
2023-03-27T06:09:26.707Z,9.52
2023-03-27T06:14:58.488Z,7.13
2023-03-27T06:20:13.058Z,9.73
2023-03-27T06:25:20.459Z,10.07
2023-03-27T06:30:25.069Z,10.15
2023-03-27T06:35:53.262Z,11.57
2023-03-27T06:41:04.986Z,11.70
2023-03-27T06:46:42.561Z,11.95
2023-03-27T06:52:17.845Z,12.63
2023-03-27T06:57:21.744Z,13.65
2023-03-27T07:02:28.334Z,14.57
2023-03-27T07:08:18.994Z,13.07
2023-03-27T07:13:28.150Z,13.32
2023-03-27T07:18:33.294Z,11.55
2023-03-27T07:23:36.047Z,10.32
2023-03-27T07:28:45.193Z,10.57
2023-03-27T07:33:48.791Z,9.27
2023-03-27T07:38:52.399Z,9.02
2023-03-27T07:44:04.173Z,8.35
2023-03-27T07:49:18.859Z,9.68
2023-03-27T07:54:21.892Z,7.68
2023-03-27T07:59:28.258Z,6.53
2023-03-27T08:04:34.064Z,7.00
2023-03-27T08:09:40.725Z,6.38
2023-03-27T08:14:47.169Z,6.85
2023-03-27T08:25:00.504Z,7.15
2023-03-27T08:30:05.304Z,6.43
2023-03-27T08:35:15.712Z,6.68
2023-03-27T08:40:28.549Z,5.78
2023-03-27T08:45:55.853Z,5.83
2023-03-27T08:51:07.103Z,7.30
2023-03-27T08:56:17.356Z,6.93
2023-03-27T09:01:38.543Z,13.13
2023-03-27T09:06:58.704Z,6.00
2023-03-27T09:12:39.506Z,4.30
2023-03-27T09:18:18.747Z,5.03
2023-03-27T09:23:31.141Z,5.78
2023-03-27T09:28:56.236Z,3.53
2023-03-27T09:34:07.103Z,3.70
2023-03-27T09:39:17.412Z,3.28
2023-03-27T09:44:30.205Z,4.10
2023-03-27T09:49:38.630Z,4.00
2023-03-27T09:54:54.958Z,3.03
2023-03-27T10:00:15.793Z,3.40
2023-03-27T10:05:27.333Z,2.97
2023-03-27T10:10:35.024Z,3.83
2023-03-27T10:15:41.261Z,3.40
2023-03-27T10:20:53.886Z,2.75
2023-03-27T10:26:03.874Z,2.78
2023-03-27T10:31:49.839Z,2.77
2023-03-27T10:37:49.790Z,5.78
2023-03-27T10:43:13.093Z,3.40
2023-03-27T10:48:27.979Z,3.10
2023-03-27T10:58:52.181Z,2.85
2023-03-27T11:09:24.594Z,3.95
2023-03-27T11:15:02.795Z,4.45
2023-03-27T11:20:19.741Z,3.00
2023-03-27T11:25:49.697Z,3.85
2023-03-27T11:31:12.026Z,3.90
2023-03-27T11:36:41.719Z,3.03
2023-03-27T11:42:05.366Z,3.92
2023-03-27T11:47:28.479Z,3.20
2023-03-27T11:52:42.870Z,3.92
2023-03-27T11:58:14.891Z,4.38
2023-03-27T12:03:33.743Z,3.40
2023-03-27T12:08:55.687Z,3.20
2023-03-27T12:14:18.497Z,2.80
2023-03-27T12:20:00.733Z,2.95
2023-03-27T12:25:51.440Z,2.40
2023-03-27T12:31:28.566Z,2.45
2023-03-27T12:36:36.525Z,2.38
2023-03-27T12:41:44.155Z,2.45
2023-03-27T12:47:24.349Z,2.83
2023-03-27T12:52:38.607Z,3.42
2023-03-27T12:57:50.993Z,3.67
2023-03-27T13:03:19.710Z,3.47
2023-03-27T13:08:52.086Z,3.72
2023-03-27T13:14:35.464Z,3.20
2023-03-27T13:20:09.843Z,3.20
2023-03-27T13:25:42.347Z,3.50
2023-03-27T13:30:47.374Z,3.55
2023-03-27T13:36:19.996Z,3.00
2023-03-27T13:41:48.220Z,3.03
2023-03-27T13:47:16.243Z,4.60
2023-03-27T13:52:56.793Z,3.28
2023-03-27T13:58:34.624Z,3.53
2023-03-27T14:04:04.832Z,3.33
2023-03-27T14:15:02.048Z,3.70
2023-03-27T14:20:15.247Z,8.55
2023-03-27T14:25:35.094Z,7.25
2023-03-27T14:30:56.485Z,4.25
2023-03-27T14:36:26.206Z,3.95
2023-03-27T14:41:31.435Z,4.33
2023-03-27T14:46:37.526Z,4.20
2023-03-27T14:51:48.254Z,4.30
2023-03-27T14:57:14.338Z,4.68
2023-03-27T15:07:43.196Z,4.97
2023-03-27T15:12:52.970Z,4.25
2023-03-27T15:17:59.822Z,4.47
2023-03-27T15:23:13.279Z,4.30
2023-03-27T15:28:23.857Z,4.32
2023-03-27T15:34:04.902Z,3.90
2023-03-27T15:39:08.522Z,3.80
2023-03-27T15:44:17.647Z,4.32
2023-03-27T15:49:28.226Z,4.50
2023-03-27T15:54:34.359Z,4.75
2023-03-27T15:59:36.903Z,4.93
2023-03-27T16:04:57.795Z,4.90
2023-03-27T16:10:05.320Z,5.40
2023-03-27T16:15:28.576Z,4.70
2023-03-27T16:20:35.181Z,4.53
2023-03-27T16:25:38.970Z,4.05
2023-03-27T16:30:42.441Z,3.67
2023-03-27T16:35:46.067Z,3.63
2023-03-27T16:40:49.698Z,4.13
2023-03-27T16:45:52.576Z,3.95
2023-03-27T16:50:55.398Z,5.07
2023-03-27T16:55:59.761Z,4.78
2023-03-27T17:01:02.795Z,4.95
2023-03-27T17:06:11.532Z,4.53
2023-03-27T17:11:14.326Z,5.25
2023-03-27T17:16:17.333Z,4.13
2023-03-27T17:21:20.324Z,7.05
2023-03-27T17:26:28.844Z,5.28
2023-03-27T17:31:32.471Z,4.82
2023-03-27T17:36:44.927Z,5.38
2023-03-27T17:41:50.963Z,4.97
2023-03-27T17:46:53.582Z,5.60
2023-03-27T17:51:56.430Z,6.72
2023-03-27T17:56:59.102Z,6.35
2023-03-27T18:02:03.315Z,6.05
2023-03-27T18:07:06.510Z,5.78
2023-03-27T18:12:10.162Z,5.03
2023-03-27T18:17:15.888Z,5.32
2023-03-27T18:22:18.469Z,5.38
2023-03-27T18:27:21.158Z,6.32
2023-03-27T18:32:23.842Z,5.28
2023-03-27T18:37:27.478Z,7.55
2023-03-27T18:42:30.049Z,5.72
2023-03-27T18:47:33.186Z,5.60
2023-03-27T18:52:36.069Z,5.57
2023-03-27T18:57:38.711Z,5.75
2023-03-27T19:02:41.507Z,5.93
2023-03-27T19:07:44.278Z,5.70
2023-03-27T19:12:49.795Z,5.45
2023-03-27T19:18:11.103Z,5.68
2023-03-27T19:23:32.349Z,6.35
2023-03-27T19:28:35.198Z,6.13
2023-03-27T19:33:38.715Z,11.23
2023-03-27T19:38:42.054Z,6.43
2023-03-27T19:43:44.676Z,6.22
2023-03-27T19:48:49.202Z,7.13
2023-03-27T19:54:00.559Z,7.55
2023-03-27T19:59:04.460Z,6.60
2023-03-27T20:04:07.082Z,7.70
2023-03-27T20:09:10.487Z,7.28
2023-03-27T20:14:13.541Z,7.13
2023-03-27T20:19:17.101Z,7.63
2023-03-27T20:24:19.721Z,7.15
2023-03-27T20:29:29.688Z,7.00
2023-03-27T20:34:32.611Z,7.47
2023-03-27T20:39:38.854Z,7.63
2023-03-27T20:44:45.758Z,7.28
2023-03-27T20:49:48.367Z,6.95
2023-03-27T20:54:51.617Z,7.57
2023-03-27T20:59:55.845Z,9.60
2023-03-27T21:04:58.448Z,11.02
2023-03-27T21:10:01.198Z,16.42
2023-03-27T21:15:05.698Z,10.70
2023-03-27T21:20:10.380Z,12.20
2023-03-27T21:25:13.188Z,7.22
2023-03-27T21:30:16.668Z,7.28
2023-03-27T21:35:19.332Z,7.03
2023-03-27T21:40:21.931Z,6.68
2023-03-27T21:45:24.588Z,7.88
2023-03-27T21:50:27.317Z,6.60
2023-03-27T21:55:29.876Z,5.97
2023-03-27T22:00:32.525Z,6.22
2023-03-27T22:05:39.114Z,5.65
2023-03-27T22:10:41.749Z,5.72
2023-03-27T22:15:44.353Z,6.47
2023-03-27T22:20:47.030Z,5.75
2023-03-27T22:25:55.650Z,6.47
2023-03-27T22:30:58.320Z,5.90
2023-03-27T22:36:01.351Z,6.88
2023-03-27T22:41:06.373Z,6.07
2023-03-27T22:46:20.376Z,7.63
2023-03-27T22:51:23.849Z,6.90
2023-03-27T22:56:26.737Z,6.70
2023-03-27T23:01:29.378Z,6.85
2023-03-27T23:06:32.044Z,7.78
2023-03-27T23:11:34.692Z,7.10
2023-03-27T23:16:37.405Z,7.30
2023-03-27T23:21:40.234Z,7.93
2023-03-27T23:26:42.815Z,7.72
2023-03-27T23:31:45.486Z,7.78
2023-03-27T23:36:48.065Z,6.95
2023-03-27T23:41:50.722Z,7.05
2023-03-27T23:46:53.301Z,7.70
2023-03-27T23:51:56.073Z,7.78
2023-03-27T23:56:58.689Z,7.55
